sensor_id;sensor_type;location;lat;lon;timestamp;pressure;altitude;pressure_sealevel;temperature;humidity
56456;BME280;42354;53.218;6.564;2023-04-01T00:00:30;47087.84;;;-142.92;100.00
56456;BME280;42354;53.218;6.564;2023-04-01T00:02:55;47108.34;;;-142.92;100.00
56456;BME280;42354;53.218;6.564;2023-04-01T00:05:21;47106.31;;;-142.92;100.00
56456;BME280;42354;53.218;6.564;2023-04-01T00:07:46;47102.19;;;-142.92;100.00
56456;BME280;42354;53.218;6.564;2023-04-01T00:10:13;47112.47;;;-142.92;100.00
56456;BME280;42354;53.218;6.564;2023-04-01T00:12:39;47124.78;;;-142.92;100.00
56456;BME280;42354;53.218;6.564;2023-04-01T00:15:07;47122.72;;;-142.92;100.00
56456;BME280;42354;53.218;6.564;2023-04-01T00:17:33;47116.56;;;-142.92;100.00
56456;BME280;42354;53.218;6.564;2023-04-01T00:19:59;47118.63;;;-142.92;100.00
56456;BME280;42354;53.218;6.564;2023-04-01T00:22:25;47120.66;;;-142.92;100.00
56456;BME280;42354;53.218;6.564;2023-04-01T00:24:51;47124.78;;;-142.92;100.00
56456;BME280;42354;53.218;6.564;2023-04-01T00:27:17;47116.56;;;-142.92;100.00
56456;BME280;42354;53.218;6.564;2023-04-01T00:29:43;47130.94;;;-142.92;100.00
56456;BME280;42354;53.218;6.564;2023-04-01T00:32:10;47135.03;;;-142.92;100.00
56456;BME280;42354;53.218;6.564;2023-04-01T00:34:36;47132.97;;;-142.92;100.00
56456;BME280;42354;53.218;6.564;2023-04-01T00:37:03;47141.19;;;-142.92;100.00
56456;BME280;42354;53.218;6.564;2023-04-01T00:39:29;47118.63;;;-142.92;100.00
56456;BME280;42354;53.218;6.564;2023-04-01T00:41:55;47132.97;;;-142.92;100.00
56456;BME280;42354;53.218;6.564;2023-04-01T00:44:26;47135.03;;;-142.92;100.00
56456;BME280;42354;53.218;6.564;2023-04-01T00:46:52;47139.13;;;-142.92;100.00
56456;BME280;42354;53.218;6.564;2023-04-01T00:49:21;47135.03;;;-142.92;100.00
56456;BME280;42354;53.218;6.564;2023-04-01T00:51:50;47126.81;;;-142.92;100.00
56456;BME280;42354;53.218;6.564;2023-04-01T00:54:19;47122.72;;;-142.92;100.00
56456;BME280;42354;53.218;6.564;2023-04-01T00:56:48;47132.97;;;-142.92;100.00
56456;BME280;42354;53.218;6.564;2023-04-01T00:59:37;47135.03;;;-142.92;100.00
56456;BME280;42354;53.218;6.564;2023-04-01T01:02:07;47124.78;;;-142.92;100.00
56456;BME280;42354;53.218;6.564;2023-04-01T01:04:34;47135.03;;;-142.92;100.00
56456;BME280;42354;53.218;6.564;2023-04-01T01:15:11;47149.41;;;-142.92;100.00
56456;BME280;42354;53.218;6.564;2023-04-01T01:20:53;47149.41;;;-142.92;100.00
56456;BME280;42354;53.218;6.564;2023-04-01T01:29:31;47141.19;;;-142.92;100.00
56456;BME280;42354;53.218;6.564;2023-04-01T01:37:13;47157.59;;;-142.92;100.00
56456;BME280;42354;53.218;6.564;2023-04-01T01:39:42;47155.56;;;-142.92;100.00
56456;BME280;42354;53.218;6.564;2023-04-01T01:42:11;47151.44;;;-142.92;100.00
56456;BME280;42354;53.218;6.564;2023-04-01T01:44:39;47157.59;;;-142.92;100.00
56456;BME280;42354;53.218;6.564;2023-04-01T01:47:05;47153.50;;;-142.92;100.00
56456;BME280;42354;53.218;6.564;2023-04-01T01:49:32;47151.44;;;-142.92;100.00
56456;BME280;42354;53.218;6.564;2023-04-01T01:51:58;47165.81;;;-142.92;100.00
56456;BME280;42354;53.218;6.564;2023-04-01T01:54:23;47174.03;;;-142.92;100.00
56456;BME280;42354;53.218;6.564;2023-04-01T01:56:54;47167.88;;;-142.92;100.00
56456;BME280;42354;53.218;6.564;2023-04-01T01:59:22;47171.97;;;-142.92;100.00
56456;BME280;42354;53.218;6.564;2023-04-01T02:01:50;47155.56;;;-142.92;100.00
56456;BME280;42354;53.218;6.564;2023-04-01T02:04:17;47163.75;;;-142.92;100.00
56456;BME280;42354;53.218;6.564;2023-04-01T02:06:56;47169.91;;;-142.92;100.00
56456;BME280;42354;53.218;6.564;2023-04-01T02:09:23;47161.72;;;-142.92;100.00
56456;BME280;42354;53.218;6.564;2023-04-01T02:12:05;47178.13;;;-142.92;100.00
56456;BME280;42354;53.218;6.564;2023-04-01T02:14:43;47182.22;;;-142.92;100.00
56456;BME280;42354;53.218;6.564;2023-04-01T02:17:18;47182.22;;;-142.92;100.00
56456;BME280;42354;53.218;6.564;2023-04-01T02:19:53;47178.13;;;-142.92;100.00
56456;BME280;42354;53.218;6.564;2023-04-01T02:22:22;47182.22;;;-142.92;100.00
56456;BME280;42354;53.218;6.564;2023-04-01T02:24:50;47169.91;;;-142.92;100.00
56456;BME280;42354;53.218;6.564;2023-04-01T02:27:17;47182.22;;;-142.92;100.00
56456;BME280;42354;53.218;6.564;2023-04-01T02:29:43;47180.19;;;-142.92;100.00
56456;BME280;42354;53.218;6.564;2023-04-01T02:32:09;47188.38;;;-142.92;100.00
56456;BME280;42354;53.218;6.564;2023-04-01T02:34:35;47171.97;;;-142.92;100.00
56456;BME280;42354;53.218;6.564;2023-04-01T02:37:01;47182.22;;;-142.92;100.00
56456;BME280;42354;53.218;6.564;2023-04-01T02:39:28;47171.97;;;-142.92;100.00
56456;BME280;42354;53.218;6.564;2023-04-01T02:41:55;47169.91;;;-142.92;100.00
56456;BME280;42354;53.218;6.564;2023-04-01T02:44:20;47180.19;;;-142.92;100.00
56456;BME280;42354;53.218;6.564;2023-04-01T02:46:45;47184.28;;;-142.92;100.00
56456;BME280;42354;53.218;6.564;2023-04-01T02:49:11;47186.34;;;-142.92;100.00
56456;BME280;42354;53.218;6.564;2023-04-01T02:51:36;47184.28;;;-142.92;100.00
56456;BME280;42354;53.218;6.564;2023-04-01T02:54:03;47192.50;;;-142.92;100.00
56456;BME280;42354;53.218;6.564;2023-04-01T02:56:29;47171.97;;;-142.92;100.00
56456;BME280;42354;53.218;6.564;2023-04-01T02:58:54;47188.38;;;-142.92;100.00
56456;BME280;42354;53.218;6.564;2023-04-01T03:01:20;47188.38;;;-142.92;100.00
56456;BME280;42354;53.218;6.564;2023-04-01T03:03:46;47174.03;;;-142.92;100.00
56456;BME280;42354;53.218;6.564;2023-04-01T03:06:14;47200.69;;;-142.92;100.00
56456;BME280;42354;53.218;6.564;2023-04-01T03:08:39;47198.66;;;-142.92;100.00
56456;BME280;42354;53.218;6.564;2023-04-01T03:11:05;47192.50;;;-142.92;100.00
56456;BME280;42354;53.218;6.564;2023-04-01T03:13:31;47186.34;;;-142.92;100.00
56456;BME280;42354;53.218;6.564;2023-04-01T03:15:56;47208.91;;;-142.92;100.00
56456;BME280;42354;53.218;6.564;2023-04-01T03:18:22;47206.88;;;-142.92;100.00
56456;BME280;42354;53.218;6.564;2023-04-01T03:20:47;47196.59;;;-142.92;100.00
56456;BME280;42354;53.218;6.564;2023-04-01T03:23:13;47196.59;;;-142.92;100.00
56456;BME280;42354;53.218;6.564;2023-04-01T03:25:38;47198.66;;;-142.92;100.00
56456;BME280;42354;53.218;6.564;2023-04-01T03:28:04;47200.69;;;-142.92;100.00
56456;BME280;42354;53.218;6.564;2023-04-01T03:30:30;47200.69;;;-142.92;100.00
56456;BME280;42354;53.218;6.564;2023-04-01T03:32:57;47196.59;;;-142.92;100.00
56456;BME280;42354;53.218;6.564;2023-04-01T03:35:22;47200.69;;;-142.92;100.00
56456;BME280;42354;53.218;6.564;2023-04-01T03:37:48;47200.69;;;-142.92;100.00
56456;BME280;42354;53.218;6.564;2023-04-01T03:40:13;47194.56;;;-142.92;100.00
56456;BME280;42354;53.218;6.564;2023-04-01T03:42:38;47200.69;;;-142.92;100.00
56456;BME280;42354;53.218;6.564;2023-04-01T03:45:05;47204.81;;;-142.92;100.00
56456;BME280;42354;53.218;6.564;2023-04-01T03:47:30;47200.69;;;-142.92;100.00
56456;BME280;42354;53.218;6.564;2023-04-01T03:49:56;47200.69;;;-142.92;100.00
56456;BME280;42354;53.218;6.564;2023-04-01T03:52:21;47198.66;;;-142.92;100.00
56456;BME280;42354;53.218;6.564;2023-04-01T03:54:47;47213.03;;;-142.92;100.00
56456;BME280;42354;53.218;6.564;2023-04-01T03:57:12;47206.88;;;-142.92;100.00
56456;BME280;42354;53.218;6.564;2023-04-01T03:59:39;47221.22;;;-142.92;100.00
56456;BME280;42354;53.218;6.564;2023-04-01T04:02:04;47204.81;;;-142.92;100.00
56456;BME280;42354;53.218;6.564;2023-04-01T04:04:30;47200.69;;;-142.92;100.00
56456;BME280;42354;53.218;6.564;2023-04-01T04:06:56;47213.03;;;-142.92;100.00
56456;BME280;42354;53.218;6.564;2023-04-01T04:09:21;47215.06;;;-142.92;100.00
56456;BME280;42354;53.218;6.564;2023-04-01T04:11:48;47208.91;;;-142.92;100.00
56456;BME280;42354;53.218;6.564;2023-04-01T04:14:13;47213.03;;;-142.92;100.00
56456;BME280;42354;53.218;6.564;2023-04-01T04:16:39;47204.81;;;-142.92;100.00
56456;BME280;42354;53.218;6.564;2023-04-01T04:19:05;47221.22;;;-142.92;100.00
56456;BME280;42354;53.218;6.564;2023-04-01T04:21:30;47219.19;;;-142.92;100.00
56456;BME280;42354;53.218;6.564;2023-04-01T04:23:55;47215.06;;;-142.92;100.00
56456;BME280;42354;53.218;6.564;2023-04-01T04:26:22;47217.13;;;-142.92;100.00
56456;BME280;42354;53.218;6.564;2023-04-01T04:28:48;47221.22;;;-142.92;100.00
56456;BME280;42354;53.218;6.564;2023-04-01T04:31:19;47215.06;;;-142.92;100.00
56456;BME280;42354;53.218;6.564;2023-04-01T04:33:45;47227.38;;;-142.92;100.00
56456;BME280;42354;53.218;6.564;2023-04-01T04:36:11;47229.44;;;-142.92;100.00
56456;BME280;42354;53.218;6.564;2023-04-01T04:38:36;47217.13;;;-142.92;100.00
56456;BME280;42354;53.218;6.564;2023-04-01T04:41:01;47221.22;;;-142.92;100.00
56456;BME280;42354;53.218;6.564;2023-04-01T04:43:27;47223.28;;;-142.92;100.00
56456;BME280;42354;53.218;6.564;2023-04-01T04:45:52;47225.34;;;-142.92;100.00
56456;BME280;42354;53.218;6.564;2023-04-01T04:48:18;47217.13;;;-142.92;100.00
56456;BME280;42354;53.218;6.564;2023-04-01T04:50:49;47229.44;;;-142.92;100.00
56456;BME280;42354;53.218;6.564;2023-04-01T04:53:17;47227.38;;;-142.92;100.00
56456;BME280;42354;53.218;6.564;2023-04-01T04:55:49;47225.34;;;-142.92;100.00
56456;BME280;42354;53.218;6.564;2023-04-01T04:58:15;47223.28;;;-142.92;100.00
56456;BME280;42354;53.218;6.564;2023-04-01T05:00:41;47217.13;;;-142.92;100.00
56456;BME280;42354;53.218;6.564;2023-04-01T05:03:07;47219.19;;;-142.92;100.00
56456;BME280;42354;53.218;6.564;2023-04-01T05:05:32;47217.13;;;-142.92;100.00
56456;BME280;42354;53.218;6.564;2023-04-01T05:07:57;47231.50;;;-142.92;100.00
56456;BME280;42354;53.218;6.564;2023-04-01T05:10:23;47217.13;;;-142.92;100.00
56456;BME280;42354;53.218;6.564;2023-04-01T05:12:48;47235.59;;;-142.92;100.00
56456;BME280;42354;53.218;6.564;2023-04-01T05:15:14;47233.53;;;-142.92;100.00
56456;BME280;42354;53.218;6.564;2023-04-01T05:17:40;47233.53;;;-142.92;100.00
56456;BME280;42354;53.218;6.564;2023-04-01T05:20:06;47229.44;;;-142.92;100.00
56456;BME280;42354;53.218;6.564;2023-04-01T05:22:32;47231.50;;;-142.92;100.00
56456;BME280;42354;53.218;6.564;2023-04-01T05:24:57;47229.44;;;-142.92;100.00
56456;BME280;42354;53.218;6.564;2023-04-01T05:27:23;47229.44;;;-142.92;100.00
56456;BME280;42354;53.218;6.564;2023-04-01T05:29:48;47233.53;;;-142.92;100.00
56456;BME280;42354;53.218;6.564;2023-04-01T05:32:14;47231.50;;;-142.92;100.00
56456;BME280;42354;53.218;6.564;2023-04-01T05:34:40;47231.50;;;-142.92;100.00
56456;BME280;42354;53.218;6.564;2023-04-01T05:37:05;47229.44;;;-142.92;100.00
56456;BME280;42354;53.218;6.564;2023-04-01T05:39:36;47237.66;;;-142.92;100.00
56456;BME280;42354;53.218;6.564;2023-04-01T05:42:01;47235.59;;;-142.92;100.00
56456;BME280;42354;53.218;6.564;2023-04-01T05:44:27;47235.59;;;-142.92;100.00
56456;BME280;42354;53.218;6.564;2023-04-01T05:46:53;47221.22;;;-142.92;100.00
56456;BME280;42354;53.218;6.564;2023-04-01T05:49:19;47237.66;;;-142.92;100.00
56456;BME280;42354;53.218;6.564;2023-04-01T05:51:44;47241.75;;;-142.92;100.00
56456;BME280;42354;53.218;6.564;2023-04-01T05:54:09;47229.44;;;-142.92;100.00
56456;BME280;42354;53.218;6.564;2023-04-01T05:56:35;47231.50;;;-142.92;100.00
56456;BME280;42354;53.218;6.564;2023-04-01T05:59:00;47231.50;;;-142.92;100.00
56456;BME280;42354;53.218;6.564;2023-04-01T06:01:25;47239.69;;;-142.92;100.00
56456;BME280;42354;53.218;6.564;2023-04-01T06:03:51;47229.44;;;-142.92;100.00
56456;BME280;42354;53.218;6.564;2023-04-01T06:06:35;47227.38;;;-142.92;100.00
56456;BME280;42354;53.218;6.564;2023-04-01T06:09:26;47241.75;;;-142.92;100.00
56456;BME280;42354;53.218;6.564;2023-04-01T06:17:48;47231.50;;;-142.92;100.00
56456;BME280;42354;53.218;6.564;2023-04-01T06:22:51;47227.38;;;-142.92;100.00
56456;BME280;42354;53.218;6.564;2023-04-01T06:25:32;47235.59;;;-142.92;100.00
56456;BME280;42354;53.218;6.564;2023-04-01T06:31:01;47235.59;;;-142.92;100.00
56456;BME280;42354;53.218;6.564;2023-04-01T06:33:50;47235.59;;;-142.92;100.00
56456;BME280;42354;53.218;6.564;2023-04-01T06:52:58;47241.75;;;-142.92;100.00
56456;BME280;42354;53.218;6.564;2023-04-01T06:55:40;47223.28;;;-142.92;100.00
56456;BME280;42354;53.218;6.564;2023-04-01T06:58:24;47225.34;;;-142.92;100.00
56456;BME280;42354;53.218;6.564;2023-04-01T07:00:54;47221.22;;;-142.92;100.00
56456;BME280;42354;53.218;6.564;2023-04-01T07:03:29;47227.38;;;-142.92;100.00
56456;BME280;42354;53.218;6.564;2023-04-01T07:06:02;47225.34;;;-142.92;100.00
56456;BME280;42354;53.218;6.564;2023-04-01T07:08:29;47233.53;;;-142.92;100.00
56456;BME280;42354;53.218;6.564;2023-04-01T07:10:58;47219.19;;;-142.92;100.00
56456;BME280;42354;53.218;6.564;2023-04-01T07:13:33;47229.44;;;-142.92;100.00
56456;BME280;42354;53.218;6.564;2023-04-01T07:16:08;47229.44;;;-142.92;100.00
56456;BME280;42354;53.218;6.564;2023-04-01T07:18:57;47227.38;;;-142.92;100.00
56456;BME280;42354;53.218;6.564;2023-04-01T07:21:26;47213.03;;;-142.92;100.00
56456;BME280;42354;53.218;6.564;2023-04-01T07:24:00;47210.97;;;-142.92;100.00
56456;BME280;42354;53.218;6.564;2023-04-01T07:26:27;47208.91;;;-142.92;100.00
56456;BME280;42354;53.218;6.564;2023-04-01T07:28:54;47227.38;;;-142.92;100.00
56456;BME280;42354;53.218;6.564;2023-04-01T07:31:23;47215.06;;;-142.92;100.00
56456;BME280;42354;53.218;6.564;2023-04-01T07:36:39;47182.22;;;-142.92;100.00
56456;BME280;42354;53.218;6.564;2023-04-01T07:45:02;47163.75;;;-142.92;100.00
56456;BME280;42354;53.218;6.564;2023-04-01T07:50:25;47122.72;;;-142.92;100.00
56456;BME280;42354;53.218;6.564;2023-04-01T07:58:30;47069.38;;;-142.92;100.00
56456;BME280;42354;53.218;6.564;2023-04-01T08:06:39;47098.09;;;-142.92;100.00
56456;BME280;42354;53.218;6.564;2023-04-01T08:17:40;46999.59;;;-142.92;100.00
56456;BME280;42354;53.218;6.564;2023-04-01T08:23:11;47011.91;;;-142.92;100.00
56456;BME280;42354;53.218;6.564;2023-04-01T08:25:51;47016.00;;;-142.92;100.00
56456;BME280;42354;53.218;6.564;2023-04-01T08:28:36;47036.53;;;-142.92;100.00
56456;BME280;42354;53.218;6.564;2023-04-01T08:31:10;46995.50;;;-142.92;100.00
56456;BME280;42354;53.218;6.564;2023-04-01T08:33:37;46995.50;;;-142.92;100.00
56456;BME280;42354;53.218;6.564;2023-04-01T08:36:15;47009.84;;;-142.92;100.00
56456;BME280;42354;53.218;6.564;2023-04-01T08:38:57;47011.91;;;-142.92;100.00
56456;BME280;42354;53.218;6.564;2023-04-01T09:00:33;47009.84;;;-142.92;100.00
56456;BME280;42354;53.218;6.564;2023-04-01T09:08:25;47007.81;;;-142.92;100.00
56456;BME280;42354;53.218;6.564;2023-04-01T09:10:57;46997.53;;;-142.92;100.00
56456;BME280;42354;53.218;6.564;2023-04-01T09:13:36;46997.53;;;-142.92;100.00
56456;BME280;42354;53.218;6.564;2023-04-01T09:19:16;46995.50;;;-142.92;100.00
56456;BME280;42354;53.218;6.564;2023-04-01T09:27:29;46991.38;;;-142.92;100.00
56456;BME280;42354;53.218;6.564;2023-04-01T09:36:26;47030.38;;;-142.92;100.00
56456;BME280;42354;53.218;6.564;2023-04-01T09:39:30;46997.53;;;-142.92;100.00
56456;BME280;42354;53.218;6.564;2023-04-01T09:44:34;46995.50;;;-142.92;100.00
56456;BME280;42354;53.218;6.564;2023-04-01T09:58:43;47009.84;;;-142.92;100.00
56456;BME280;42354;53.218;6.564;2023-04-01T10:01:57;47018.06;;;-142.92;100.00
56456;BME280;42354;53.218;6.564;2023-04-01T10:04:54;47022.16;;;-142.92;100.00
56456;BME280;42354;53.218;6.564;2023-04-01T10:07:25;47005.75;;;-142.92;100.00
56456;BME280;42354;53.218;6.564;2023-04-01T10:11:11;46995.50;;;-142.92;100.00
56456;BME280;42354;53.218;6.564;2023-04-01T10:13:23;46979.06;;;-142.92;100.00
56456;BME280;42354;53.218;6.564;2023-04-01T10:19:31;46983.19;;;-142.92;99.28
56456;BME280;42354;53.218;6.564;2023-04-01T10:28:19;46997.53;;;-142.92;99.32
56456;BME280;42354;53.218;6.564;2023-04-01T10:41:58;47003.69;;;-142.92;100.00
56456;BME280;42354;53.218;6.564;2023-04-01T10:56:56;46999.59;;;-142.92;98.57
56456;BME280;42354;53.218;6.564;2023-04-01T11:22:28;46993.44;;;-142.92;99.61
56456;BME280;42354;53.218;6.564;2023-04-01T11:33:19;47003.69;;;-142.92;99.10
56456;BME280;42354;53.218;6.564;2023-04-01T11:36:13;46999.59;;;-142.92;97.72
56456;BME280;42354;53.218;6.564;2023-04-01T11:39:00;46999.59;;;-142.92;97.53
56456;BME280;42354;53.218;6.564;2023-04-01T11:44:41;47009.84;;;-142.92;96.63
56456;BME280;42354;53.218;6.564;2023-04-01T12:09:24;47009.84;;;-142.92;94.06
56456;BME280;42354;53.218;6.564;2023-04-01T12:12:14;47003.69;;;-142.92;92.84
56456;BME280;42354;53.218;6.564;2023-04-01T12:25:49;47016.00;;;-142.92;93.16
56456;BME280;42354;53.218;6.564;2023-04-01T12:28:45;47003.69;;;-142.92;92.93
56456;BME280;42354;53.218;6.564;2023-04-01T12:37:57;47013.97;;;-142.92;92.07
56456;BME280;42354;53.218;6.564;2023-04-01T12:56:52;46999.59;;;-142.92;91.35
56456;BME280;42354;53.218;6.564;2023-04-01T12:59:46;47005.75;;;-142.92;91.34
56456;BME280;42354;53.218;6.564;2023-04-01T13:16:45;47009.84;;;-142.92;92.12
56456;BME280;42354;53.218;6.564;2023-04-01T13:19:36;47003.69;;;-142.92;91.34
56456;BME280;42354;53.218;6.564;2023-04-01T13:27:33;47011.91;;;-142.92;90.92
56456;BME280;42354;53.218;6.564;2023-04-01T13:43:47;47009.84;;;-142.92;88.42
56456;BME280;42354;53.218;6.564;2023-04-01T13:52:29;47005.75;;;-142.92;87.97
56456;BME280;42354;53.218;6.564;2023-04-01T13:55:31;47013.97;;;-142.92;87.67
56456;BME280;42354;53.218;6.564;2023-04-01T14:01:34;46991.38;;;-142.92;87.63
56456;BME280;42354;53.218;6.564;2023-04-01T14:06:59;47005.75;;;-142.92;87.50
56456;BME280;42354;53.218;6.564;2023-04-01T14:15:39;47013.97;;;-142.92;88.15
56456;BME280;42354;53.218;6.564;2023-04-01T14:18:26;47005.75;;;-142.92;88.56
56456;BME280;42354;53.218;6.564;2023-04-01T14:40:34;47026.28;;;-142.92;88.06
56456;BME280;42354;53.218;6.564;2023-04-01T14:51:08;47003.69;;;-142.92;88.69
56456;BME280;42354;53.218;6.564;2023-04-01T14:53:38;47005.75;;;-142.92;88.82
56456;BME280;42354;53.218;6.564;2023-04-01T14:56:10;47013.97;;;-142.92;88.67
56456;BME280;42354;53.218;6.564;2023-04-01T14:58:44;47005.75;;;-142.92;88.77
56456;BME280;42354;53.218;6.564;2023-04-01T15:19:30;47005.75;;;-142.92;89.11
56456;BME280;42354;53.218;6.564;2023-04-01T15:24:06;47005.75;;;-142.92;88.51
56456;BME280;42354;53.218;6.564;2023-04-01T15:29:51;47005.75;;;-142.92;88.82
56456;BME280;42354;53.218;6.564;2023-04-01T15:34:49;47007.81;;;-142.92;89.21
56456;BME280;42354;53.218;6.564;2023-04-01T15:40:42;46993.44;;;-142.92;89.36
56456;BME280;42354;53.218;6.564;2023-04-01T15:55:24;46995.50;;;-142.92;89.05
56456;BME280;42354;53.218;6.564;2023-04-01T16:01:26;47003.69;;;-142.92;89.56
56456;BME280;42354;53.218;6.564;2023-04-01T16:12:27;47007.81;;;-142.92;90.37
56456;BME280;42354;53.218;6.564;2023-04-01T16:15:24;47003.69;;;-142.92;90.17
56456;BME280;42354;53.218;6.564;2023-04-01T16:26:28;46999.59;;;-142.92;90.48
56456;BME280;42354;53.218;6.564;2023-04-01T16:29:03;47001.66;;;-142.92;90.95
56456;BME280;42354;53.218;6.564;2023-04-01T16:31:55;47007.81;;;-142.92;90.72
56456;BME280;42354;53.218;6.564;2023-04-01T16:34:58;47011.91;;;-142.92;90.93
56456;BME280;42354;53.218;6.564;2023-04-01T16:37:54;47005.75;;;-142.92;90.97
56456;BME280;42354;53.218;6.564;2023-04-01T16:43:16;47005.75;;;-142.92;91.17
56456;BME280;42354;53.218;6.564;2023-04-01T16:51:47;47001.66;;;-142.92;92.04
56456;BME280;42354;53.218;6.564;2023-04-01T16:54:35;47011.91;;;-142.92;91.64
56456;BME280;42354;53.218;6.564;2023-04-01T17:02:38;47024.22;;;-142.92;91.57
56456;BME280;42354;53.218;6.564;2023-04-01T17:05:11;46999.59;;;-142.92;91.33
56456;BME280;42354;53.218;6.564;2023-04-01T17:07:57;46991.38;;;-142.92;91.24
56456;BME280;42354;53.218;6.564;2023-04-01T17:18:28;47032.44;;;-142.92;91.44
56456;BME280;42354;53.218;6.564;2023-04-01T17:21:23;47003.69;;;-142.92;91.25
56456;BME280;42354;53.218;6.564;2023-04-01T17:27:18;46993.44;;;-142.92;91.13
56456;BME280;42354;53.218;6.564;2023-04-01T17:32:56;47011.91;;;-142.92;91.06
56456;BME280;42354;53.218;6.564;2023-04-01T17:52:40;47003.69;;;-142.92;91.86
56456;BME280;42354;53.218;6.564;2023-04-01T17:55:26;47005.75;;;-142.92;92.16
56456;BME280;42354;53.218;6.564;2023-04-01T17:58:05;47001.66;;;-142.92;92.11
56456;BME280;42354;53.218;6.564;2023-04-01T18:04:24;47001.66;;;-142.92;92.42
56456;BME280;42354;53.218;6.564;2023-04-01T18:06:41;46983.19;;;-142.92;92.24
56456;BME280;42354;53.218;6.564;2023-04-01T18:12:06;46999.59;;;-142.92;92.14
56456;BME280;42354;53.218;6.564;2023-04-01T18:26:03;46995.50;;;-142.92;92.18
56456;BME280;42354;53.218;6.564;2023-04-01T18:28:59;46999.59;;;-142.92;92.05
56456;BME280;42354;53.218;6.564;2023-04-01T18:31:26;46999.59;;;-142.92;92.33
56456;BME280;42354;53.218;6.564;2023-04-01T18:37:32;46962.66;;;-142.92;91.71
56456;BME280;42354;53.218;6.564;2023-04-01T18:43:05;47005.75;;;-142.92;92.25
56456;BME280;42354;53.218;6.564;2023-04-01T18:46:38;47016.00;;;-142.92;92.33
56456;BME280;42354;53.218;6.564;2023-04-01T18:48:59;47011.91;;;-142.92;91.69
56456;BME280;42354;53.218;6.564;2023-04-01T18:51:43;46983.19;;;-142.92;91.92
56456;BME280;42354;53.218;6.564;2023-04-01T18:54:17;46987.28;;;-142.92;91.97
56456;BME280;42354;53.218;6.564;2023-04-01T18:56:47;47024.22;;;-142.92;91.91
56456;BME280;42354;53.218;6.564;2023-04-01T18:59:29;46989.34;;;-142.92;91.69
56456;BME280;42354;53.218;6.564;2023-04-01T19:02:23;46983.19;;;-142.92;91.46
56456;BME280;42354;53.218;6.564;2023-04-01T19:05:21;46991.38;;;-142.92;91.34
56456;BME280;42354;53.218;6.564;2023-04-01T19:07:53;46999.59;;;-142.92;91.17
56456;BME280;42354;53.218;6.564;2023-04-01T19:10:37;47016.00;;;-142.92;91.35
56456;BME280;42354;53.218;6.564;2023-04-01T19:21:55;46983.19;;;-142.92;91.27
56456;BME280;42354;53.218;6.564;2023-04-01T19:24:26;47003.69;;;-142.92;91.37
56456;BME280;42354;53.218;6.564;2023-04-01T19:33:13;47016.00;;;-142.92;90.44
56456;BME280;42354;53.218;6.564;2023-04-01T19:35:49;46997.53;;;-142.92;90.35
56456;BME280;42354;53.218;6.564;2023-04-01T19:38:28;46977.03;;;-142.92;90.25
56456;BME280;42354;53.218;6.564;2023-04-01T19:57:20;46997.53;;;-142.92;90.08
56456;BME280;42354;53.218;6.564;2023-04-01T20:02:58;46974.97;;;-142.92;89.45
56456;BME280;42354;53.218;6.564;2023-04-01T20:11:08;46995.50;;;-142.92;89.52
56456;BME280;42354;53.218;6.564;2023-04-01T20:16:18;47020.13;;;-142.92;89.46
56456;BME280;42354;53.218;6.564;2023-04-01T20:18:51;47013.97;;;-142.92;89.20
56456;BME280;42354;53.218;6.564;2023-04-01T20:21:27;47013.97;;;-142.92;89.05
56456;BME280;42354;53.218;6.564;2023-04-01T20:23:55;47003.69;;;-142.92;89.21
56456;BME280;42354;53.218;6.564;2023-04-01T20:26:27;46987.28;;;-142.92;89.18
56456;BME280;42354;53.218;6.564;2023-04-01T20:31:42;47005.75;;;-142.92;88.70
56456;BME280;42354;53.218;6.564;2023-04-01T20:37:10;46995.50;;;-142.92;88.35
56456;BME280;42354;53.218;6.564;2023-04-01T20:39:57;47007.81;;;-142.92;88.44
56456;BME280;42354;53.218;6.564;2023-04-01T20:50:53;47018.06;;;-142.92;87.96
56456;BME280;42354;53.218;6.564;2023-04-01T20:56:27;47007.81;;;-142.92;87.61
56456;BME280;42354;53.218;6.564;2023-04-01T21:21:03;46987.28;;;-142.92;86.57
56456;BME280;42354;53.218;6.564;2023-04-01T21:26:12;47016.00;;;-142.92;86.10
56456;BME280;42354;53.218;6.564;2023-04-01T21:29:19;46991.38;;;-142.92;85.73
56456;BME280;42354;53.218;6.564;2023-04-01T21:34:42;47016.00;;;-142.92;85.49
56456;BME280;42354;53.218;6.564;2023-04-01T21:40:09;46997.53;;;-142.92;85.24
56456;BME280;42354;53.218;6.564;2023-04-01T21:48:53;47013.97;;;-142.92;84.88
56456;BME280;42354;53.218;6.564;2023-04-01T21:54:31;47011.91;;;-142.92;84.83
56456;BME280;42354;53.218;6.564;2023-04-01T22:05:54;46983.19;;;-142.92;84.85
56456;BME280;42354;53.218;6.564;2023-04-01T22:11:05;46983.19;;;-142.92;84.91
56456;BME280;42354;53.218;6.564;2023-04-01T22:13:40;47005.75;;;-142.92;84.97
56456;BME280;42354;53.218;6.564;2023-04-01T22:16:27;47011.91;;;-142.92;84.33
56456;BME280;42354;53.218;6.564;2023-04-01T22:19:21;47007.81;;;-142.92;83.83
56456;BME280;42354;53.218;6.564;2023-04-01T22:22:23;47016.00;;;-142.92;83.81
56456;BME280;42354;53.218;6.564;2023-04-01T22:27:26;46987.28;;;-142.92;84.13
56456;BME280;42354;53.218;6.564;2023-04-01T22:32:31;47011.91;;;-142.92;84.44
56456;BME280;42354;53.218;6.564;2023-04-01T22:40:30;46993.44;;;-142.92;83.48
56456;BME280;42354;53.218;6.564;2023-04-01T22:43:13;47009.84;;;-142.92;83.37
56456;BME280;42354;53.218;6.564;2023-04-01T22:46:03;47024.22;;;-142.92;83.06
56456;BME280;42354;53.218;6.564;2023-04-01T22:48:49;46993.44;;;-142.92;82.96
56456;BME280;42354;53.218;6.564;2023-04-01T22:51:24;47007.81;;;-142.92;83.15
56456;BME280;42354;53.218;6.564;2023-04-01T22:53:57;46999.59;;;-142.92;82.96
56456;BME280;42354;53.218;6.564;2023-04-01T22:56:32;47022.16;;;-142.92;82.77